createdAt,value
2018-11-22T00:02:06.539Z,99003.98
2018-11-22T00:04:36.862Z,99003.98
2018-11-22T00:07:07.186Z,99010.13
2018-11-22T00:09:37.504Z,99001.98
2018-11-22T00:12:08.083Z,99007.78
2018-11-22T00:14:38.482Z,99007.75
2018-11-22T00:17:08.898Z,99003.76
2018-11-22T00:19:39.479Z,99006.25
2018-11-22T00:22:10.162Z,99013.92
2018-11-22T00:24:40.413Z,99015.92
2018-11-22T00:27:10.982Z,99011.72
2018-11-22T00:29:41.190Z,99010.91
2018-11-22T00:32:11.506Z,99014.73
2018-11-22T00:34:42.985Z,99016.90
2018-11-22T00:37:13.418Z,99017.36
2018-11-22T12:16:20.440Z,99127.08
2018-11-22T12:18:50.982Z,99120.06
2018-11-22T12:21:21.168Z,99119.91
2018-11-22T12:23:52.133Z,99123.55
2018-11-22T12:26:22.414Z,99123.06
2018-11-22T12:28:52.782Z,99124.72
2018-11-22T12:31:23.547Z,99120.56
2018-11-22T12:33:59.531Z,99121.72
2018-11-22T12:36:34.923Z,99123.41
2018-11-22T12:39:08.510Z,99119.73
2018-11-22T12:41:39.693Z,99117.89
2018-11-22T12:44:09.949Z,99116.37
2018-11-22T12:46:40.691Z,99115.70
2018-11-22T12:49:11.240Z,99114.89
2018-11-22T12:51:41.475Z,99122.72
2018-11-22T12:54:11.964Z,99110.52
2018-11-22T12:56:42.305Z,99114.05
2018-11-22T12:59:12.644Z,99112.34
2018-11-22T13:01:42.997Z,99112.55
2018-11-22T13:04:13.241Z,99116.71
2018-11-22T13:06:44.454Z,99118.21
2018-11-22T13:11:51.135Z,99120.52
2018-11-22T13:14:22.012Z,99114.84
2018-11-22T13:16:53.211Z,99122.52
2018-11-22T13:19:23.515Z,99120.86
2018-11-22T13:21:54.796Z,99118.70
2018-11-22T13:24:25.218Z,99124.03
2018-11-22T13:26:56.384Z,99121.51
2018-11-22T13:29:26.595Z,99132.53
2018-11-22T13:31:57.080Z,99126.84
2018-11-22T13:34:27.523Z,99135.17
2018-11-22T13:36:57.704Z,99135.32
2018-11-22T13:39:28.321Z,99136.19
2018-11-22T13:41:58.813Z,99132.83
2018-11-22T13:44:30.088Z,99130.85
2018-11-22T13:47:00.401Z,99128.83
2018-11-22T13:49:30.893Z,99137.47
2018-11-22T13:52:01.379Z,99136.98
2018-11-22T13:54:32.517Z,99134.98
2018-11-22T13:57:03.219Z,99139.13
2018-11-22T13:59:33.413Z,99147.01
2018-11-22T14:02:03.815Z,99154.83
2018-11-22T14:04:34.574Z,99147.83
2018-11-22T14:07:05.615Z,99147.67
2018-11-22T14:09:35.743Z,99144.34
2018-11-22T14:12:06.129Z,99150.14
2018-11-22T14:14:37.125Z,99146.31
2018-11-22T14:17:07.535Z,99153.33
2018-11-22T14:19:38.365Z,99151.67
2018-11-22T14:22:08.608Z,99153.33
2018-11-22T14:24:39.351Z,99150.98
2018-11-22T14:27:10.477Z,99150.47
2018-11-22T14:29:40.645Z,99150.58
2018-11-22T14:32:11.153Z,99150.44
2018-11-22T14:34:41.538Z,99159.28
2018-11-22T14:37:11.949Z,99150.58
2018-11-22T14:39:43.064Z,99151.42
2018-11-22T14:42:13.459Z,99153.08
2018-11-22T14:44:43.976Z,99153.22
2018-11-22T14:47:14.453Z,99150.73
2018-11-22T14:49:44.902Z,99156.84
2018-11-22T14:52:15.578Z,99162.37
2018-11-22T14:54:45.994Z,99160.34
2018-11-22T14:57:16.291Z,99157.55
2018-11-22T14:59:47.474Z,99164.31
2018-11-22T15:02:17.855Z,99166.52
2018-11-22T15:04:48.409Z,99162.06
2018-11-22T15:07:19.328Z,99166.03
2018-11-22T15:09:49.742Z,99168.34
2018-11-22T15:12:19.968Z,99163.36
2018-11-22T15:14:51.079Z,99162.17
2018-11-22T15:17:21.731Z,99164.17
2018-11-22T15:19:51.998Z,99163.97
2018-11-22T15:22:22.243Z,99169.68
2018-11-22T15:24:52.497Z,99164.17
2018-11-22T15:27:22.955Z,99159.83
2018-11-22T15:29:53.826Z,99165.64
2018-11-22T15:32:24.079Z,99165.13
2018-11-22T15:34:54.249Z,99166.84
2018-11-22T15:37:24.526Z,99166.84
2018-11-22T15:39:54.961Z,99164.48
2018-11-22T15:42:25.186Z,99161.83
2018-11-22T15:44:55.485Z,99159.97
2018-11-22T15:47:25.707Z,99156.81
2018-11-22T15:49:56.061Z,99161.65
2018-11-22T15:52:26.872Z,99157.47
2018-11-22T15:54:57.464Z,99162.48
2018-11-22T15:57:27.739Z,99162.17
2018-11-22T15:59:58.078Z,99167.16
2018-11-22T16:02:28.310Z,99170.31
2018-11-22T16:04:59.093Z,99168.80
2018-11-22T16:07:29.930Z,99172.94
2018-11-22T16:10:00.473Z,99173.43
2018-11-22T16:12:31.531Z,99170.94
2018-11-22T16:15:02.439Z,99178.06
2018-11-22T16:17:33.146Z,99179.77
2018-11-22T16:20:03.432Z,99181.81
2018-11-22T16:22:33.984Z,99178.13
2018-11-22T16:25:05.090Z,99181.33
2018-11-22T16:27:35.865Z,99184.84
2018-11-22T16:30:11.099Z,99178.37
2018-11-22T16:32:42.007Z,99180.38
2018-11-22T16:35:13.929Z,99181.85
2018-11-22T16:37:44.693Z,99176.52
2018-11-22T16:40:17.511Z,99172.84
2018-11-22T16:42:48.899Z,99171.68
2018-11-22T16:45:21.572Z,99172.17
2018-11-22T16:47:51.963Z,99180.20
2018-11-22T16:50:24.599Z,99172.17
2018-11-22T16:52:55.727Z,99174.84
2018-11-22T16:55:26.751Z,99173.36
2018-11-22T16:57:58.338Z,99172.84
2018-11-22T17:00:36.013Z,99176.66
2018-11-22T17:03:09.299Z,99169.47
2018-11-22T17:05:39.903Z,99168.48
2018-11-22T17:08:10.831Z,99170.98
2018-11-22T17:10:41.594Z,99163.83
2018-11-22T17:13:11.876Z,99164.48
2018-11-22T17:15:43.004Z,99160.98
2018-11-22T17:18:13.437Z,99162.98
2018-11-22T17:20:44.527Z,99167.68
2018-11-22T17:23:15.560Z,99168.80
2018-11-22T17:25:46.052Z,99166.34
2018-11-22T17:28:17.109Z,99170.66
2018-11-22T17:30:47.315Z,99167.02
2018-11-22T17:33:18.252Z,99167.50
2018-11-22T17:35:51.627Z,99177.53
2018-11-22T17:38:22.039Z,99173.22
2018-11-22T17:43:33.239Z,99172.41
2018-11-22T17:46:04.290Z,99174.23
2018-11-22T17:48:35.219Z,99179.05
2018-11-22T17:51:06.311Z,99174.23
2018-11-22T17:53:37.320Z,99179.25
2018-11-22T17:56:08.323Z,99174.58
2018-11-22T17:58:38.652Z,99163.25
2018-11-22T18:01:14.505Z,99168.13
2018-11-22T18:03:39.327Z,99171.11
2018-11-22T18:06:10.218Z,99178.23
2018-11-22T18:08:45.053Z,99174.58
2018-11-22T18:11:15.967Z,99178.23
2018-11-22T18:13:46.836Z,99171.74
2018-11-22T18:16:17.293Z,99179.08
2018-11-22T18:18:47.833Z,99175.88
2018-11-22T18:21:18.046Z,99174.06
2018-11-22T18:23:48.709Z,99172.23
2018-11-22T18:26:20.081Z,99172.91
2018-11-22T18:31:26.291Z,99182.06
2018-11-22T18:33:57.057Z,99179.42
2018-11-22T18:36:27.785Z,99182.09
2018-11-22T18:41:34.241Z,99174.94
2018-11-22T18:44:05.331Z,99177.77
2018-11-22T18:46:35.894Z,99172.61
2018-11-22T18:49:06.485Z,99173.77
2018-11-22T18:51:36.747Z,99171.77
2018-11-22T18:54:07.016Z,99173.42
2018-11-22T18:56:37.389Z,99180.90
2018-11-22T18:59:07.625Z,99177.39
2018-11-22T19:01:44.899Z,99168.76
2018-11-22T19:04:11.363Z,99176.91
2018-11-22T19:06:42.356Z,99170.58
2018-11-22T19:09:12.534Z,99172.73
2018-11-22T19:11:42.742Z,99172.38
2018-11-22T19:14:13.410Z,99174.38
2018-11-22T19:16:48.230Z,99185.39
2018-11-22T19:19:18.442Z,99174.55
2018-11-22T19:21:48.836Z,99178.37
2018-11-22T19:24:19.067Z,99177.36
2018-11-22T19:26:49.653Z,99181.19
2018-11-22T19:29:19.905Z,99187.85
2018-11-22T19:31:50.202Z,99189.18
2018-11-22T19:34:20.802Z,99191.88
2018-11-22T19:36:51.192Z,99194.55
2018-11-22T19:39:23.390Z,99188.90
2018-11-22T19:41:54.131Z,99190.27
2018-11-22T19:44:24.545Z,99195.25
2018-11-22T19:46:54.948Z,99193.77
2018-11-22T19:49:25.706Z,99197.62
2018-11-22T19:51:56.082Z,99200.30
2018-11-22T19:54:26.512Z,99200.44
2018-11-22T19:56:56.919Z,99202.94
2018-11-22T19:59:27.345Z,99204.12
2018-11-22T20:01:57.877Z,99209.28
2018-11-22T20:04:28.271Z,99214.61
2018-11-22T20:06:58.697Z,99218.13
2018-11-22T20:09:29.158Z,99218.27
2018-11-22T20:11:59.569Z,99216.93
2018-11-22T20:14:29.736Z,99217.95
2018-11-22T20:17:00.074Z,99221.28
2018-11-22T20:19:30.337Z,99217.25
2018-11-22T20:22:01.523Z,99223.25
2018-11-22T20:24:32.666Z,99223.73
2018-11-22T20:27:06.982Z,99227.25
2018-11-22T20:29:37.207Z,99229.39
2018-11-22T20:32:07.469Z,99232.89
2018-11-22T20:34:37.880Z,99229.91
2018-11-22T20:39:44.643Z,99240.89
2018-11-22T20:42:15.082Z,99233.34
2018-11-22T20:44:45.628Z,99234.19
2018-11-22T20:47:16.033Z,99237.34
2018-11-22T20:49:46.569Z,99244.33
2018-11-22T20:52:17.313Z,99234.16
2018-11-22T20:54:47.659Z,99236.36
2018-11-22T20:57:18.051Z,99243.17
2018-11-22T20:59:48.498Z,99233.79
2018-11-22T21:02:19.523Z,99234.67
2018-11-22T21:04:50.078Z,99235.17
2018-11-22T21:07:21.179Z,99225.70
2018-11-22T21:09:51.653Z,99229.52
2018-11-22T21:12:22.672Z,99228.68
2018-11-22T21:14:52.986Z,99231.17
2018-11-22T21:17:24.110Z,99231.66
2018-11-22T21:19:54.492Z,99223.48
2018-11-22T21:22:24.975Z,99229.17
2018-11-22T21:24:55.707Z,99234.81
2018-11-22T21:27:26.633Z,99235.44
2018-11-22T21:29:57.021Z,99239.13
2018-11-22T21:32:27.183Z,99237.44
2018-11-22T21:34:57.377Z,99237.61
2018-11-22T21:37:27.712Z,99240.32
2018-11-22T21:39:57.985Z,99240.64
2018-11-22T21:42:28.350Z,99238.67
2018-11-22T21:44:58.595Z,99236.33
2018-11-22T21:47:28.985Z,99240.95
2018-11-22T21:49:59.980Z,99237.48
2018-11-22T21:52:30.205Z,99239.30
2018-11-22T21:55:00.505Z,99242.28
2018-11-22T21:57:33.518Z,99237.30
2018-11-22T22:00:03.795Z,99241.80
2018-11-22T22:02:33.977Z,99240.46
2018-11-22T22:05:07.985Z,99243.30
2018-11-22T22:07:38.623Z,99244.45
2018-11-22T22:10:08.857Z,99245.48
2018-11-22T22:12:39.883Z,99239.48
2018-11-22T22:15:12.888Z,99239.80
2018-11-22T22:17:43.944Z,99247.16
2018-11-22T22:20:17.143Z,99246.81
2018-11-22T22:22:47.561Z,99246.67
2018-11-22T22:25:19.253Z,99248.00
2018-11-22T22:27:50.406Z,99255.66
2018-11-22T22:30:26.214Z,99252.64
2018-11-22T22:32:57.857Z,99249.16
2018-11-22T22:35:28.110Z,99240.14
2018-11-22T22:37:58.413Z,99238.81
2018-11-22T22:40:29.548Z,99241.30
2018-11-22T22:43:00.357Z,99239.56
2018-11-22T22:45:31.586Z,99245.52
2018-11-22T22:48:01.862Z,99247.17
2018-11-22T22:50:33.074Z,99247.03
2018-11-22T22:53:03.530Z,99243.57
2018-11-22T22:55:34.808Z,99243.74
2018-11-22T22:58:06.064Z,99243.44
2018-11-22T23:00:42.443Z,99240.23
2018-11-22T23:05:53.041Z,99234.95
2018-11-22T23:08:23.600Z,99236.59
2018-11-22T23:10:54.053Z,99234.59
2018-11-22T23:13:27.103Z,99242.77
2018-11-22T23:15:57.522Z,99242.42
2018-11-22T23:18:28.038Z,99245.97
2018-11-22T23:20:58.425Z,99238.95
2018-11-22T23:23:29.331Z,99245.44
2018-11-22T23:26:00.384Z,99246.11
2018-11-22T23:28:31.403Z,99251.48
2018-11-22T23:31:01.733Z,99250.27
2018-11-22T23:33:31.973Z,99247.61
2018-11-22T23:36:02.273Z,99240.45
2018-11-22T23:38:33.026Z,99240.77
2018-11-22T23:41:03.364Z,99241.08
2018-11-22T23:43:34.430Z,99238.59
2018-11-22T23:46:05.864Z,99244.27
2018-11-22T23:48:36.095Z,99238.73
2018-11-22T23:51:09.244Z,99240.06
2018-11-22T23:53:39.450Z,99247.56
2018-11-22T23:56:10.430Z,99247.39
2018-11-22T23:58:40.656Z,99246.59
